sensor_id;sensor_type;location;lat;lon;timestamp;pressure;altitude;pressure_sealevel;temperature;humidity
6433;BME280;3249;42.690;23.260;2022-09-12T00:00:49;94265.94;;;15.00;100.00
6433;BME280;3249;42.690;23.260;2022-09-12T00:03:15;94263.25;;;14.95;100.00
6433;BME280;3249;42.690;23.260;2022-09-12T00:05:44;94263.50;;;14.94;100.00
6433;BME280;3249;42.690;23.260;2022-09-12T00:08:11;94267.19;;;14.98;100.00
6433;BME280;3249;42.690;23.260;2022-09-12T00:10:38;94268.75;;;14.99;100.00
6433;BME280;3249;42.690;23.260;2022-09-12T00:13:04;94257.00;;;14.91;100.00
6433;BME280;3249;42.690;23.260;2022-09-12T00:15:29;94271.53;;;14.92;100.00
6433;BME280;3249;42.690;23.260;2022-09-12T00:17:54;94262.94;;;14.87;100.00
6433;BME280;3249;42.690;23.260;2022-09-12T00:20:20;94278.25;;;14.88;100.00
6433;BME280;3249;42.690;23.260;2022-09-12T00:22:45;94277.50;;;14.93;100.00
6433;BME280;3249;42.690;23.260;2022-09-12T00:25:11;94274.00;;;14.82;100.00
6433;BME280;3249;42.690;23.260;2022-09-12T00:27:36;94236.59;;;14.52;100.00
6433;BME280;3249;42.690;23.260;2022-09-12T00:30:02;94271.59;;;14.76;100.00
6433;BME280;3249;42.690;23.260;2022-09-12T00:32:28;94266.09;;;14.72;100.00
6433;BME280;3249;42.690;23.260;2022-09-12T00:34:53;94264.78;;;14.70;100.00
6433;BME280;3249;42.690;23.260;2022-09-12T00:37:19;94270.19;;;14.68;100.00
6433;BME280;3249;42.690;23.260;2022-09-12T00:39:44;94272.72;;;14.63;100.00
6433;BME280;3249;42.690;23.260;2022-09-12T00:42:10;94262.97;;;14.49;100.00
6433;BME280;3249;42.690;23.260;2022-09-12T00:47:28;94270.03;;;14.53;100.00
6433;BME280;3249;42.690;23.260;2022-09-12T00:50:03;94267.34;;;14.48;100.00
6433;BME280;3249;42.690;23.260;2022-09-12T00:55:31;94260.13;;;14.50;100.00
6433;BME280;3249;42.690;23.260;2022-09-12T00:58:04;94266.78;;;14.63;100.00
6433;BME280;3249;42.690;23.260;2022-09-12T01:00:31;94237.06;;;14.49;100.00
6433;BME280;3249;42.690;23.260;2022-09-12T01:03:05;94259.06;;;14.68;100.00
6433;BME280;3249;42.690;23.260;2022-09-12T01:05:34;94259.25;;;14.61;100.00
6433;BME280;3249;42.690;23.260;2022-09-12T01:08:02;94263.16;;;14.64;100.00
6433;BME280;3249;42.690;23.260;2022-09-12T01:10:28;94255.03;;;14.55;100.00
6433;BME280;3249;42.690;23.260;2022-09-12T01:12:54;94258.63;;;14.54;100.00
6433;BME280;3249;42.690;23.260;2022-09-12T01:15:20;94260.09;;;14.45;100.00
6433;BME280;3249;42.690;23.260;2022-09-12T01:23:23;94257.91;;;14.21;100.00
6433;BME280;3249;42.690;23.260;2022-09-12T01:31:05;94251.06;;;13.93;100.00
6433;BME280;3249;42.690;23.260;2022-09-12T01:36:35;94253.38;;;13.94;100.00
6433;BME280;3249;42.690;23.260;2022-09-12T01:41:49;94252.53;;;13.89;100.00
6433;BME280;3249;42.690;23.260;2022-09-12T01:44:42;94253.00;;;13.86;100.00
6433;BME280;3249;42.690;23.260;2022-09-12T01:47:20;94249.41;;;13.87;100.00
6433;BME280;3249;42.690;23.260;2022-09-12T01:53:01;94237.66;;;13.79;100.00
6433;BME280;3249;42.690;23.260;2022-09-12T01:55:32;94236.63;;;13.80;100.00
6433;BME280;3249;42.690;23.260;2022-09-12T01:58:25;94247.84;;;13.86;100.00
6433;BME280;3249;42.690;23.260;2022-09-12T02:00:54;94245.25;;;13.86;100.00
6433;BME280;3249;42.690;23.260;2022-09-12T02:03:26;94245.25;;;13.86;100.00
6433;BME280;3249;42.690;23.260;2022-09-12T02:05:58;94249.84;;;13.84;100.00
6433;BME280;3249;42.690;23.260;2022-09-12T02:08:29;94249.56;;;13.80;100.00
6433;BME280;3249;42.690;23.260;2022-09-12T02:11:05;94240.88;;;13.70;100.00
6433;BME280;3249;42.690;23.260;2022-09-12T02:16:23;94241.72;;;13.59;100.00
6433;BME280;3249;42.690;23.260;2022-09-12T02:18:53;94238.91;;;13.60;100.00
6433;BME280;3249;42.690;23.260;2022-09-12T02:21:21;94246.50;;;13.67;100.00
6433;BME280;3249;42.690;23.260;2022-09-12T02:23:54;94245.25;;;13.69;100.00
6433;BME280;3249;42.690;23.260;2022-09-12T02:26:49;94251.28;;;13.75;100.00
6433;BME280;3249;42.690;23.260;2022-09-12T02:29:15;94247.75;;;13.64;100.00
6433;BME280;3249;42.690;23.260;2022-09-12T02:31:58;94248.59;;;13.53;100.00
6433;BME280;3249;42.690;23.260;2022-09-12T02:37:51;94240.22;;;13.46;100.00
6433;BME280;3249;42.690;23.260;2022-09-12T02:40:13;94246.75;;;13.49;100.00
6433;BME280;3249;42.690;23.260;2022-09-12T02:42:39;94240.94;;;13.42;100.00
6433;BME280;3249;42.690;23.260;2022-09-12T02:45:05;94219.34;;;13.20;100.00
6433;BME280;3249;42.690;23.260;2022-09-12T02:50:17;94247.47;;;13.33;100.00
6433;BME280;3249;42.690;23.260;2022-09-12T02:52:43;94210.09;;;13.07;100.00
6433;BME280;3249;42.690;23.260;2022-09-12T02:55:09;94245.84;;;13.27;100.00
6433;BME280;3249;42.690;23.260;2022-09-12T02:57:36;94251.25;;;13.25;100.00
6433;BME280;3249;42.690;23.260;2022-09-12T03:00:02;94251.47;;;13.24;100.00
6433;BME280;3249;42.690;23.260;2022-09-12T03:05:39;94250.81;;;13.17;100.00
6433;BME280;3249;42.690;23.260;2022-09-12T03:08:50;94260.94;;;13.18;100.00
6433;BME280;3249;42.690;23.260;2022-09-12T03:14:17;94259.94;;;13.19;100.00
6433;BME280;3249;42.690;23.260;2022-09-12T03:19:40;94262.25;;;13.21;100.00
6433;BME280;3249;42.690;23.260;2022-09-12T03:22:16;94261.28;;;13.22;100.00
6433;BME280;3249;42.690;23.260;2022-09-12T03:29:40;94217.97;;;13.01;100.00
6433;BME280;3249;42.690;23.260;2022-09-12T03:32:07;94251.94;;;13.21;100.00
6433;BME280;3249;42.690;23.260;2022-09-12T03:34:33;94255.53;;;13.20;100.00
6433;BME280;3249;42.690;23.260;2022-09-12T03:36:58;94246.13;;;13.14;100.00
6433;BME280;3249;42.690;23.260;2022-09-12T03:39:24;94252.41;;;13.18;100.00
6433;BME280;3249;42.690;23.260;2022-09-12T03:41:51;94254.13;;;13.12;100.00
6433;BME280;3249;42.690;23.260;2022-09-12T03:44:17;94254.13;;;13.12;100.00
6433;BME280;3249;42.690;23.260;2022-09-12T03:46:43;94254.44;;;13.16;100.00
6433;BME280;3249;42.690;23.260;2022-09-12T03:49:09;94245.25;;;13.08;100.00
6433;BME280;3249;42.690;23.260;2022-09-12T03:51:35;94251.75;;;13.11;100.00
6433;BME280;3249;42.690;23.260;2022-09-12T03:54:00;94257.00;;;13.16;100.00
6433;BME280;3249;42.690;23.260;2022-09-12T03:56:26;94253.97;;;13.19;100.00
6433;BME280;3249;42.690;23.260;2022-09-12T03:58:51;94250.81;;;13.17;100.00
6433;BME280;3249;42.690;23.260;2022-09-12T04:01:18;94255.88;;;13.23;100.00
6433;BME280;3249;42.690;23.260;2022-09-12T04:03:46;94252.66;;;13.16;100.00
6433;BME280;3249;42.690;23.260;2022-09-12T04:06:13;94259.78;;;13.26;100.00
6433;BME280;3249;42.690;23.260;2022-09-12T04:08:40;94260.91;;;13.30;100.00
6433;BME280;3249;42.690;23.260;2022-09-12T04:11:14;94261.34;;;13.27;100.00
6433;BME280;3249;42.690;23.260;2022-09-12T04:13:41;94266.16;;;13.35;100.00
6433;BME280;3249;42.690;23.260;2022-09-12T04:16:06;94273.97;;;13.40;100.00
6433;BME280;3249;42.690;23.260;2022-09-12T04:18:33;94258.34;;;13.18;100.00
6433;BME280;3249;42.690;23.260;2022-09-12T04:21:06;94269.38;;;13.42;100.00
6433;BME280;3249;42.690;23.260;2022-09-12T04:23:32;94272.50;;;13.44;100.00
6433;BME280;3249;42.690;23.260;2022-09-12T04:25:59;94271.31;;;13.35;100.00
6433;BME280;3249;42.690;23.260;2022-09-12T04:28:25;94279.88;;;13.35;100.00
6433;BME280;3249;42.690;23.260;2022-09-12T04:30:53;94286.22;;;13.44;100.00
6433;BME280;3249;42.690;23.260;2022-09-12T04:33:19;94282.88;;;13.60;100.00
6433;BME280;3249;42.690;23.260;2022-09-12T04:35:44;94272.53;;;13.60;100.00
6433;BME280;3249;42.690;23.260;2022-09-12T04:38:10;94277.06;;;13.86;100.00
6433;BME280;3249;42.690;23.260;2022-09-12T04:40:36;94283.66;;;13.94;100.00
6433;BME280;3249;42.690;23.260;2022-09-12T04:43:02;94290.81;;;14.04;100.00
6433;BME280;3249;42.690;23.260;2022-09-12T04:45:27;94300.16;;;14.21;100.00
6433;BME280;3249;42.690;23.260;2022-09-12T04:47:53;94302.47;;;14.39;100.00
6433;BME280;3249;42.690;23.260;2022-09-12T04:50:18;94298.56;;;14.37;100.00
6433;BME280;3249;42.690;23.260;2022-09-12T04:52:51;94297.28;;;14.39;100.00
6433;BME280;3249;42.690;23.260;2022-09-12T04:55:17;94292.97;;;14.28;100.00
6433;BME280;3249;42.690;23.260;2022-09-12T04:57:43;94296.13;;;14.47;100.00
6433;BME280;3249;42.690;23.260;2022-09-12T05:00:09;94302.94;;;14.74;100.00
6433;BME280;3249;42.690;23.260;2022-09-12T05:02:39;94302.94;;;14.96;100.00
6433;BME280;3249;42.690;23.260;2022-09-12T05:05:05;94310.81;;;15.06;100.00
6433;BME280;3249;42.690;23.260;2022-09-12T05:07:31;94312.22;;;15.13;100.00
6433;BME280;3249;42.690;23.260;2022-09-12T05:09:56;94312.06;;;15.25;100.00
6433;BME280;3249;42.690;23.260;2022-09-12T05:12:22;94308.72;;;15.24;100.00
6433;BME280;3249;42.690;23.260;2022-09-12T05:14:48;94311.97;;;15.36;100.00
6433;BME280;3249;42.690;23.260;2022-09-12T05:17:13;94304.72;;;15.38;100.00
6433;BME280;3249;42.690;23.260;2022-09-12T05:19:39;94306.03;;;15.41;100.00
6433;BME280;3249;42.690;23.260;2022-09-12T05:22:04;94300.84;;;15.41;100.00
6433;BME280;3249;42.690;23.260;2022-09-12T05:24:31;94296.19;;;15.38;100.00
6433;BME280;3249;42.690;23.260;2022-09-12T05:26:57;94301.22;;;15.28;100.00
6433;BME280;3249;42.690;23.260;2022-09-12T05:29:22;94302.28;;;15.05;100.00
6433;BME280;3249;42.690;23.260;2022-09-12T05:31:49;94299.03;;;14.93;100.00
6433;BME280;3249;42.690;23.260;2022-09-12T05:34:16;94299.75;;;14.89;100.00
6433;BME280;3249;42.690;23.260;2022-09-12T05:36:42;94290.94;;;14.90;100.00
6433;BME280;3249;42.690;23.260;2022-09-12T05:39:07;94304.31;;;15.03;100.00
6433;BME280;3249;42.690;23.260;2022-09-12T05:41:33;94296.84;;;15.07;100.00
6433;BME280;3249;42.690;23.260;2022-09-12T05:44:00;94283.88;;;15.07;100.00
6433;BME280;3249;42.690;23.260;2022-09-12T05:46:29;94300.63;;;15.42;100.00
6433;BME280;3249;42.690;23.260;2022-09-12T05:48:55;94299.53;;;15.65;100.00
6433;BME280;3249;42.690;23.260;2022-09-12T05:51:25;94290.16;;;15.90;100.00
6433;BME280;3249;42.690;23.260;2022-09-12T05:53:55;94285.94;;;16.16;100.00
6433;BME280;3249;42.690;23.260;2022-09-12T05:56:23;94294.63;;;16.31;100.00
6433;BME280;3249;42.690;23.260;2022-09-12T05:59:00;94292.19;;;16.20;100.00
6433;BME280;3249;42.690;23.260;2022-09-12T06:01:27;94285.44;;;16.19;100.00
6433;BME280;3249;42.690;23.260;2022-09-12T06:03:55;94271.03;;;16.01;100.00
6433;BME280;3249;42.690;23.260;2022-09-12T06:06:23;94281.91;;;15.98;100.00
6433;BME280;3249;42.690;23.260;2022-09-12T06:08:51;94283.44;;;15.94;100.00
6433;BME280;3249;42.690;23.260;2022-09-12T06:11:22;94283.97;;;15.96;100.00
6433;BME280;3249;42.690;23.260;2022-09-12T06:13:48;94277.78;;;16.02;100.00
6433;BME280;3249;42.690;23.260;2022-09-12T06:16:17;94283.44;;;15.94;100.00
6433;BME280;3249;42.690;23.260;2022-09-12T06:18:52;94289.69;;;15.98;100.00
6433;BME280;3249;42.690;23.260;2022-09-12T06:21:19;94273.63;;;16.01;100.00
6433;BME280;3249;42.690;23.260;2022-09-12T06:23:45;94287.22;;;16.13;100.00
6433;BME280;3249;42.690;23.260;2022-09-12T06:26:12;94262.78;;;16.09;100.00
6433;BME280;3249;42.690;23.260;2022-09-12T06:28:40;94293.34;;;16.39;100.00
6433;BME280;3249;42.690;23.260;2022-09-12T06:31:11;94293.59;;;16.37;100.00
6433;BME280;3249;42.690;23.260;2022-09-12T06:33:39;94293.81;;;16.31;100.00
6433;BME280;3249;42.690;23.260;2022-09-12T06:36:26;94305.56;;;16.38;100.00
6433;BME280;3249;42.690;23.260;2022-09-12T06:39:06;94296.41;;;16.31;100.00
6433;BME280;3249;42.690;23.260;2022-09-12T06:41:32;94306.16;;;16.45;100.00
6433;BME280;3249;42.690;23.260;2022-09-12T06:43:59;94309.84;;;16.54;100.00
6433;BME280;3249;42.690;23.260;2022-09-12T06:46:25;94311.94;;;16.57;100.00
6433;BME280;3249;42.690;23.260;2022-09-12T06:48:51;94303.56;;;16.45;100.00
6433;BME280;3249;42.690;23.260;2022-09-12T06:51:18;94315.00;;;16.49;100.00
6433;BME280;3249;42.690;23.260;2022-09-12T06:53:45;94316.41;;;16.30;100.00
6433;BME280;3249;42.690;23.260;2022-09-12T06:56:16;94320.56;;;16.63;100.00
6433;BME280;3249;42.690;23.260;2022-09-12T06:58:43;94320.41;;;16.89;100.00
6433;BME280;3249;42.690;23.260;2022-09-12T07:01:17;94321.06;;;17.16;100.00
6433;BME280;3249;42.690;23.260;2022-09-12T07:03:46;94325.72;;;17.09;100.00
6433;BME280;3249;42.690;23.260;2022-09-12T07:06:14;94331.69;;;17.10;100.00
6433;BME280;3249;42.690;23.260;2022-09-12T07:08:40;94310.59;;;17.06;100.00
6433;BME280;3249;42.690;23.260;2022-09-12T07:11:21;94323.91;;;17.20;100.00
6433;BME280;3249;42.690;23.260;2022-09-12T07:13:49;94337.28;;;17.38;100.00
6433;BME280;3249;42.690;23.260;2022-09-12T07:16:15;94321.63;;;17.33;100.00
6433;BME280;3249;42.690;23.260;2022-09-12T07:18:41;94310.66;;;17.16;100.00
6433;BME280;3249;42.690;23.260;2022-09-12T07:21:12;94314.31;;;17.20;100.00
6433;BME280;3249;42.690;23.260;2022-09-12T07:23:38;94343.50;;;17.37;100.00
6433;BME280;3249;42.690;23.260;2022-09-12T07:26:06;94342.97;;;17.30;100.00
6433;BME280;3249;42.690;23.260;2022-09-12T07:28:33;94336.97;;;17.30;100.00
6433;BME280;3249;42.690;23.260;2022-09-12T07:31:10;94335.69;;;17.32;100.00
6433;BME280;3249;42.690;23.260;2022-09-12T07:33:37;94348.69;;;17.37;100.00
6433;BME280;3249;42.690;23.260;2022-09-12T07:36:04;94346.16;;;17.42;100.00
6433;BME280;3249;42.690;23.260;2022-09-12T07:38:30;94336.47;;;17.33;100.00
6433;BME280;3249;42.690;23.260;2022-09-12T07:40:56;94339.84;;;17.33;100.00
6433;BME280;3249;42.690;23.260;2022-09-12T07:43:22;94323.09;;;17.09;100.00
6433;BME280;3249;42.690;23.260;2022-09-12T07:45:47;94334.88;;;17.22;100.00
6433;BME280;3249;42.690;23.260;2022-09-12T07:48:12;94339.59;;;17.30;100.00
6433;BME280;3249;42.690;23.260;2022-09-12T07:50:38;94333.03;;;17.17;100.00
6433;BME280;3249;42.690;23.260;2022-09-12T07:53:04;94342.59;;;17.07;100.00
6433;BME280;3249;42.690;23.260;2022-09-12T07:55:31;94334.06;;;17.11;100.00
6433;BME280;3249;42.690;23.260;2022-09-12T07:57:56;94339.53;;;17.20;100.00
6433;BME280;3249;42.690;23.260;2022-09-12T08:00:22;94326.53;;;17.20;100.00
6433;BME280;3249;42.690;23.260;2022-09-12T08:02:51;94340.13;;;17.37;100.00
6433;BME280;3249;42.690;23.260;2022-09-12T08:05:17;94335.03;;;17.67;100.00
6433;BME280;3249;42.690;23.260;2022-09-12T08:07:43;94343.13;;;17.90;100.00
6433;BME280;3249;42.690;23.260;2022-09-12T08:10:09;94341.59;;;17.99;100.00
6433;BME280;3249;42.690;23.260;2022-09-12T08:12:34;94353.28;;;17.92;100.00
6433;BME280;3249;42.690;23.260;2022-09-12T08:15:00;94341.56;;;17.89;100.00
6433;BME280;3249;42.690;23.260;2022-09-12T08:17:26;94331.91;;;17.80;100.00
6433;BME280;3249;42.690;23.260;2022-09-12T08:19:52;94339.47;;;17.96;100.00
6433;BME280;3249;42.690;23.260;2022-09-12T08:22:18;94341.56;;;18.09;100.00
6433;BME280;3249;42.690;23.260;2022-09-12T08:24:46;94324.63;;;18.07;100.00
6433;BME280;3249;42.690;23.260;2022-09-12T08:27:11;94338.44;;;18.13;100.00
6433;BME280;3249;42.690;23.260;2022-09-12T08:29:37;94322.31;;;18.11;100.00
6433;BME280;3249;42.690;23.260;2022-09-12T08:32:02;94344.72;;;18.37;100.00
6433;BME280;3249;42.690;23.260;2022-09-12T08:34:28;94339.00;;;18.40;100.00
6433;BME280;3249;42.690;23.260;2022-09-12T08:36:53;94345.78;;;18.36;100.00
6433;BME280;3249;42.690;23.260;2022-09-12T08:39:19;94336.88;;;18.17;100.00
6433;BME280;3249;42.690;23.260;2022-09-12T08:41:47;94336.88;;;18.17;100.00
6433;BME280;3249;42.690;23.260;2022-09-12T08:44:54;94339.22;;;17.93;100.00
6433;BME280;3249;42.690;23.260;2022-09-12T08:47:26;94341.03;;;17.77;100.00
6433;BME280;3249;42.690;23.260;2022-09-12T08:57:59;94331.16;;;18.15;100.00
6433;BME280;3249;42.690;23.260;2022-09-12T09:17:22;94330.13;;;18.56;100.00
6433;BME280;3249;42.690;23.260;2022-09-12T09:20:02;94325.88;;;18.80;100.00
6433;BME280;3249;42.690;23.260;2022-09-12T09:22:44;94335.53;;;18.89;100.00
6433;BME280;3249;42.690;23.260;2022-09-12T09:25:18;94331.13;;;18.75;100.00
6433;BME280;3249;42.690;23.260;2022-09-12T09:27:50;94327.97;;;18.83;100.00
6433;BME280;3249;42.690;23.260;2022-09-12T09:30:19;94320.66;;;18.90;100.00
6433;BME280;3249;42.690;23.260;2022-09-12T09:32:54;94326.38;;;19.02;100.00
6433;BME280;3249;42.690;23.260;2022-09-12T09:43:43;94321.88;;;19.07;100.00
6433;BME280;3249;42.690;23.260;2022-09-12T09:46:08;94307.09;;;18.88;100.00
6433;BME280;3249;42.690;23.260;2022-09-12T09:48:37;94303.44;;;18.94;100.00
6433;BME280;3249;42.690;23.260;2022-09-12T09:51:05;94307.28;;;19.06;100.00
6433;BME280;3249;42.690;23.260;2022-09-12T09:53:57;94315.25;;;19.40;100.00
6433;BME280;3249;42.690;23.260;2022-09-12T09:56:27;94301.78;;;19.18;100.00
6433;BME280;3249;42.690;23.260;2022-09-12T09:58:52;94306.47;;;19.11;100.00
6433;BME280;3249;42.690;23.260;2022-09-12T10:01:18;94291.94;;;18.95;100.00
6433;BME280;3249;42.690;23.260;2022-09-12T10:03:54;94299.00;;;18.89;100.00
6433;BME280;3249;42.690;23.260;2022-09-12T10:06:29;94315.94;;;18.92;100.00
6433;BME280;3249;42.690;23.260;2022-09-12T10:09:17;94302.44;;;18.75;100.00
6433;BME280;3249;42.690;23.260;2022-09-12T10:11:43;94293.84;;;18.69;100.00
6433;BME280;3249;42.690;23.260;2022-09-12T10:14:32;94306.56;;;18.91;100.00
6433;BME280;3249;42.690;23.260;2022-09-12T10:17:00;94302.31;;;19.05;100.00
6433;BME280;3249;42.690;23.260;2022-09-12T10:19:36;94302.03;;;19.11;100.00
6433;BME280;3249;42.690;23.260;2022-09-12T10:22:03;94296.28;;;19.24;100.00
6433;BME280;3249;42.690;23.260;2022-09-12T10:24:31;94306.84;;;19.48;100.00
6433;BME280;3249;42.690;23.260;2022-09-12T10:29:33;94296.09;;;19.54;100.00
6433;BME280;3249;42.690;23.260;2022-09-12T10:32:06;94300.53;;;19.59;100.00
6433;BME280;3249;42.690;23.260;2022-09-12T10:34:35;94308.72;;;19.42;97.41
6433;BME280;3249;42.690;23.260;2022-09-12T10:37:07;94303.53;;;19.37;90.95
6433;BME280;3249;42.690;23.260;2022-09-12T10:39:34;94291.00;;;19.34;91.84
6433;BME280;3249;42.690;23.260;2022-09-12T10:42:03;94306.09;;;19.47;91.70
6433;BME280;3249;42.690;23.260;2022-09-12T10:44:32;94305.94;;;19.24;89.28
6433;BME280;3249;42.690;23.260;2022-09-12T10:46:59;94297.56;;;19.22;92.51
6433;BME280;3249;42.690;23.260;2022-09-12T10:49:30;94296.53;;;19.18;89.25
6433;BME280;3249;42.690;23.260;2022-09-12T10:51:57;94301.97;;;19.36;91.72
6433;BME280;3249;42.690;23.260;2022-09-12T10:54:40;94311.66;;;19.31;95.15
6433;BME280;3249;42.690;23.260;2022-09-12T11:00:08;94304.78;;;19.45;95.18
6433;BME280;3249;42.690;23.260;2022-09-12T11:05:21;94291.25;;;19.33;94.62
6433;BME280;3249;42.690;23.260;2022-09-12T11:08:21;94297.03;;;19.30;97.14
6433;BME280;3249;42.690;23.260;2022-09-12T11:19:31;94297.16;;;18.95;100.00
6433;BME280;3249;42.690;23.260;2022-09-12T11:30:41;94291.88;;;19.05;100.00
6433;BME280;3249;42.690;23.260;2022-09-12T11:35:50;94297.56;;;19.22;100.00
6433;BME280;3249;42.690;23.260;2022-09-12T11:41:08;94293.56;;;18.76;100.00
6433;BME280;3249;42.690;23.260;2022-09-12T11:43:41;94301.41;;;18.71;100.00
6433;BME280;3249;42.690;23.260;2022-09-12T11:46:19;94307.16;;;18.68;100.00
6433;BME280;3249;42.690;23.260;2022-09-12T11:51:18;94278.47;;;18.63;100.00
6433;BME280;3249;42.690;23.260;2022-09-12T11:53:50;94289.19;;;18.56;100.00
6433;BME280;3249;42.690;23.260;2022-09-12T11:56:20;94289.44;;;18.55;100.00
6433;BME280;3249;42.690;23.260;2022-09-12T11:58:52;94288.66;;;18.64;100.00
6433;BME280;3249;42.690;23.260;2022-09-12T12:01:31;94285.78;;;18.56;100.00
6433;BME280;3249;42.690;23.260;2022-09-12T12:04:10;94287.88;;;18.49;100.00
6433;BME280;3249;42.690;23.260;2022-09-12T12:06:49;94284.00;;;18.41;100.00
6433;BME280;3249;42.690;23.260;2022-09-12T12:09:17;94282.66;;;18.54;100.00
6433;BME280;3249;42.690;23.260;2022-09-12T12:11:49;94283.19;;;18.66;100.00
6433;BME280;3249;42.690;23.260;2022-09-12T12:14:24;94266.47;;;18.67;100.00
6433;BME280;3249;42.690;23.260;2022-09-12T12:16:52;94273.69;;;18.95;99.07
6433;BME280;3249;42.690;23.260;2022-09-12T12:22:14;94268.47;;;18.95;100.00
6433;BME280;3249;42.690;23.260;2022-09-12T12:25:04;94278.63;;;18.96;98.84
6433;BME280;3249;42.690;23.260;2022-09-12T12:33:01;94279.00;;;18.60;100.00
6433;BME280;3249;42.690;23.260;2022-09-12T12:35:42;94258.69;;;18.42;100.00
6433;BME280;3249;42.690;23.260;2022-09-12T12:38:32;94276.38;;;18.65;100.00
6433;BME280;3249;42.690;23.260;2022-09-12T12:43:49;94267.66;;;18.94;100.00
6433;BME280;3249;42.690;23.260;2022-09-12T12:46:22;94267.31;;;19.26;100.00
6433;BME280;3249;42.690;23.260;2022-09-12T12:49:26;94292.25;;;19.47;98.92
6433;BME280;3249;42.690;23.260;2022-09-12T12:57:27;94261.00;;;18.68;100.00
6433;BME280;3249;42.690;23.260;2022-09-12T13:00:00;94266.00;;;18.45;100.00
6433;BME280;3249;42.690;23.260;2022-09-12T13:04:54;94279.56;;;18.37;100.00
6433;BME280;3249;42.690;23.260;2022-09-12T13:07:32;94284.22;;;18.30;100.00
6433;BME280;3249;42.690;23.260;2022-09-12T13:10:00;94261.56;;;18.30;100.00
6433;BME280;3249;42.690;23.260;2022-09-12T13:12:41;94268.59;;;18.50;100.00
6433;BME280;3249;42.690;23.260;2022-09-12T13:18:05;94284.19;;;18.65;100.00
6433;BME280;3249;42.690;23.260;2022-09-12T13:20:46;94260.22;;;18.58;100.00
6433;BME280;3249;42.690;23.260;2022-09-12T13:23:24;94275.53;;;18.89;100.00
6433;BME280;3249;42.690;23.260;2022-09-12T13:25:55;94277.59;;;18.92;98.61
6433;BME280;3249;42.690;23.260;2022-09-12T13:28:21;94269.22;;;19.00;97.46
6433;BME280;3249;42.690;23.260;2022-09-12T13:33:36;94272.38;;;18.92;100.00
6433;BME280;3249;42.690;23.260;2022-09-12T13:36:19;94271.31;;;18.98;100.00
6433;BME280;3249;42.690;23.260;2022-09-12T13:44:09;94258.88;;;18.80;100.00
6433;BME280;3249;42.690;23.260;2022-09-12T13:46:37;94253.34;;;18.87;100.00
6433;BME280;3249;42.690;23.260;2022-09-12T13:49:36;94269.38;;;19.24;97.37
6433;BME280;3249;42.690;23.260;2022-09-12T13:52:13;94257.13;;;19.14;91.15
6433;BME280;3249;42.690;23.260;2022-09-12T13:54:43;94268.34;;;19.20;92.32
6433;BME280;3249;42.690;23.260;2022-09-12T13:59:54;94272.00;;;19.19;94.08
6433;BME280;3249;42.690;23.260;2022-09-12T14:02:21;94266.06;;;19.03;94.21
6433;BME280;3249;42.690;23.260;2022-09-12T14:04:48;94269.50;;;18.94;95.99
6433;BME280;3249;42.690;23.260;2022-09-12T14:07:59;94266.69;;;18.75;97.61
6433;BME280;3249;42.690;23.260;2022-09-12T14:10:39;94264.91;;;18.66;98.29
6433;BME280;3249;42.690;23.260;2022-09-12T14:13:12;94261.22;;;18.82;99.34
6433;BME280;3249;42.690;23.260;2022-09-12T14:15:43;94262.75;;;18.88;97.24
6433;BME280;3249;42.690;23.260;2022-09-12T14:18:29;94260.66;;;18.85;96.58
6433;BME280;3249;42.690;23.260;2022-09-12T14:21:08;94265.59;;;18.91;96.40
6433;BME280;3249;42.690;23.260;2022-09-12T14:23:40;94266.88;;;18.99;95.59
6433;BME280;3249;42.690;23.260;2022-09-12T14:26:09;94269.97;;;19.01;95.89
6433;BME280;3249;42.690;23.260;2022-09-12T14:28:39;94270.25;;;19.04;96.53
6433;BME280;3249;42.690;23.260;2022-09-12T14:33:56;94274.50;;;18.85;97.73
6433;BME280;3249;42.690;23.260;2022-09-12T14:36:34;94271.59;;;18.92;99.00
6433;BME280;3249;42.690;23.260;2022-09-12T14:39:04;94271.63;;;18.87;98.41
6433;BME280;3249;42.690;23.260;2022-09-12T14:41:35;94262.25;;;18.76;99.59
6433;BME280;3249;42.690;23.260;2022-09-12T14:44:03;94265.94;;;18.75;100.00
6433;BME280;3249;42.690;23.260;2022-09-12T14:46:38;94272.44;;;18.77;100.00
6433;BME280;3249;42.690;23.260;2022-09-12T14:49:24;94261.97;;;18.82;100.00
6433;BME280;3249;42.690;23.260;2022-09-12T14:57:33;94282.00;;;18.97;99.16
6433;BME280;3249;42.690;23.260;2022-09-12T15:00:25;94280.41;;;19.01;100.00
6433;BME280;3249;42.690;23.260;2022-09-12T15:02:52;94285.16;;;18.94;100.00
6433;BME280;3249;42.690;23.260;2022-09-12T15:05:21;94278.44;;;18.78;100.00
6433;BME280;3249;42.690;23.260;2022-09-12T15:10:33;94264.09;;;18.75;100.00
6433;BME280;3249;42.690;23.260;2022-09-12T15:15:35;94271.63;;;18.77;100.00
6433;BME280;3249;42.690;23.260;2022-09-12T15:18:01;94270.13;;;18.71;100.00
6433;BME280;3249;42.690;23.260;2022-09-12T15:20:27;94277.16;;;18.65;100.00
6433;BME280;3249;42.690;23.260;2022-09-12T15:22:52;94265.19;;;18.54;100.00
6433;BME280;3249;42.690;23.260;2022-09-12T15:25:18;94264.16;;;18.60;100.00
6433;BME280;3249;42.690;23.260;2022-09-12T15:27:46;94266.00;;;18.45;100.00
6433;BME280;3249;42.690;23.260;2022-09-12T15:30:13;94269.91;;;18.42;100.00
6433;BME280;3249;42.690;23.260;2022-09-12T15:32:41;94263.94;;;18.37;100.00
6433;BME280;3249;42.690;23.260;2022-09-12T15:35:16;94277.75;;;18.32;100.00
6433;BME280;3249;42.690;23.260;2022-09-12T15:37:42;94272.78;;;18.21;100.00
6433;BME280;3249;42.690;23.260;2022-09-12T15:40:09;94263.13;;;18.26;100.00
6433;BME280;3249;42.690;23.260;2022-09-12T15:42:35;94263.66;;;18.18;100.00
6433;BME280;3249;42.690;23.260;2022-09-12T15:45:00;94265.22;;;18.19;100.00
6433;BME280;3249;42.690;23.260;2022-09-12T15:47:26;94264.19;;;18.15;100.00
6433;BME280;3249;42.690;23.260;2022-09-12T15:49:51;94263.41;;;18.09;100.00
6433;BME280;3249;42.690;23.260;2022-09-12T15:52:17;94260.81;;;18.15;100.00
6433;BME280;3249;42.690;23.260;2022-09-12T15:54:42;94244.66;;;18.13;100.00
6433;BME280;3249;42.690;23.260;2022-09-12T15:57:08;94261.31;;;18.17;100.00
6433;BME280;3249;42.690;23.260;2022-09-12T15:59:34;94249.84;;;18.28;100.00